sensor_id;sensor_type;location;lat;lon;timestamp;pressure;altitude;pressure_sealevel;temperature;humidity
50057;BME280;36875;49.468;11.200;2023-03-19T00:02:19;97634.59;;;18.85;37.51
50057;BME280;36875;49.468;11.200;2023-03-19T00:04:45;97632.22;;;18.84;37.41
50057;BME280;36875;49.468;11.200;2023-03-19T00:07:12;97632.22;;;18.84;37.34
50057;BME280;36875;49.468;11.200;2023-03-19T00:09:37;97630.59;;;18.83;37.52
50057;BME280;36875;49.468;11.200;2023-03-19T00:12:04;97632.22;;;18.84;37.69
50057;BME280;36875;49.468;11.200;2023-03-19T00:14:31;97627.88;;;18.83;37.32
50057;BME280;36875;49.468;11.200;2023-03-19T00:16:57;97630.59;;;18.83;37.70
50057;BME280;36875;49.468;11.200;2023-03-19T00:19:22;97628.97;;;18.82;37.82
50057;BME280;36875;49.468;11.200;2023-03-19T00:21:48;97628.16;;;18.81;37.31
50057;BME280;36875;49.468;11.200;2023-03-19T00:24:14;97632.81;;;18.81;37.48
50057;BME280;36875;49.468;11.200;2023-03-19T00:26:42;97630.91;;;18.81;37.29
50057;BME280;36875;49.468;11.200;2023-03-19T00:29:08;97624.13;;;18.79;37.75
50057;BME280;36875;49.468;11.200;2023-03-19T00:31:35;97629.56;;;18.79;37.29
50057;BME280;36875;49.468;11.200;2023-03-19T00:34:01;97625.53;;;18.76;37.42
50057;BME280;36875;49.468;11.200;2023-03-19T00:36:28;97621.69;;;18.77;37.31
50057;BME280;36875;49.468;11.200;2023-03-19T00:38:54;97628.44;;;18.80;37.72
50057;BME280;36875;49.468;11.200;2023-03-19T00:41:20;97624.13;;;18.79;37.43
50057;BME280;36875;49.468;11.200;2023-03-19T00:43:45;97622.50;;;18.78;37.72
50057;BME280;36875;49.468;11.200;2023-03-19T00:46:11;97625.22;;;18.78;37.56
50057;BME280;36875;49.468;11.200;2023-03-19T00:48:38;97634.53;;;18.77;37.66
50057;BME280;36875;49.468;11.200;2023-03-19T00:51:09;97630.97;;;18.76;37.51
50057;BME280;36875;49.468;11.200;2023-03-19T00:53:36;97640.78;;;18.77;37.28
50057;BME280;36875;49.468;11.200;2023-03-19T00:56:02;97640.00;;;18.77;37.48
50057;BME280;36875;49.468;11.200;2023-03-19T00:58:27;97639.16;;;18.76;37.56
50057;BME280;36875;49.468;11.200;2023-03-19T01:00:53;97643.81;;;18.76;37.26
50057;BME280;36875;49.468;11.200;2023-03-19T01:03:19;97643.31;;;18.74;37.63
50057;BME280;36875;49.468;11.200;2023-03-19T01:05:47;97650.38;;;18.75;37.42
50057;BME280;36875;49.468;11.200;2023-03-19T01:08:14;97656.97;;;18.74;37.29
50057;BME280;36875;49.468;11.200;2023-03-19T01:10:39;97656.97;;;18.74;37.50
50057;BME280;36875;49.468;11.200;2023-03-19T01:13:05;97652.31;;;18.74;37.44
50057;BME280;36875;49.468;11.200;2023-03-19T01:15:34;97652.31;;;18.74;37.51
50057;BME280;36875;49.468;11.200;2023-03-19T01:17:59;97658.06;;;18.73;37.37
50057;BME280;36875;49.468;11.200;2023-03-19T01:20:25;97652.09;;;18.71;37.20
50057;BME280;36875;49.468;11.200;2023-03-19T01:22:52;97656.75;;;18.70;37.34
50057;BME280;36875;49.468;11.200;2023-03-19T01:25:18;97654.84;;;18.71;37.70
50057;BME280;36875;49.468;11.200;2023-03-19T01:27:43;97653.72;;;18.72;37.56
50057;BME280;36875;49.468;11.200;2023-03-19T01:30:10;97658.88;;;18.73;37.24
50057;BME280;36875;49.468;11.200;2023-03-19T01:32:35;97658.06;;;18.73;37.36
50057;BME280;36875;49.468;11.200;2023-03-19T01:35:00;97660.28;;;18.71;37.38
50057;BME280;36875;49.468;11.200;2023-03-19T01:37:26;97664.63;;;18.72;37.43
50057;BME280;36875;49.468;11.200;2023-03-19T01:39:53;97660.78;;;18.73;37.25
50057;BME280;36875;49.468;11.200;2023-03-19T01:42:19;97658.06;;;18.73;37.32
50057;BME280;36875;49.468;11.200;2023-03-19T01:44:45;97658.38;;;18.71;37.12
50057;BME280;36875;49.468;11.200;2023-03-19T01:47:15;97659.50;;;18.70;37.49
50057;BME280;36875;49.468;11.200;2023-03-19T01:49:42;97666.88;;;18.69;37.39
50057;BME280;36875;49.468;11.200;2023-03-19T01:52:10;97662.22;;;18.70;37.31
50057;BME280;36875;49.468;11.200;2023-03-19T01:54:37;97666.56;;;18.71;37.24
50057;BME280;36875;49.468;11.200;2023-03-19T01:57:07;97669.59;;;18.69;37.28
50057;BME280;36875;49.468;11.200;2023-03-19T01:59:35;97664.94;;;18.70;37.28
50057;BME280;36875;49.468;11.200;2023-03-19T02:02:05;97661.41;;;18.69;37.33
50057;BME280;36875;49.468;11.200;2023-03-19T02:04:34;97653.06;;;18.66;37.09
50057;BME280;36875;49.468;11.200;2023-03-19T02:07:01;97655.47;;;18.67;37.15
50057;BME280;36875;49.468;11.200;2023-03-19T02:09:28;97661.41;;;18.69;37.14
50057;BME280;36875;49.468;11.200;2023-03-19T02:11:55;97660.28;;;18.71;37.28
50057;BME280;36875;49.468;11.200;2023-03-19T02:14:22;97663.31;;;18.69;37.30
50057;BME280;36875;49.468;11.200;2023-03-19T02:16:48;97651.91;;;18.67;37.41
50057;BME280;36875;49.468;11.200;2023-03-19T02:19:18;97658.19;;;18.67;36.93
50057;BME280;36875;49.468;11.200;2023-03-19T02:21:46;97659.50;;;18.70;37.10
50057;BME280;36875;49.468;11.200;2023-03-19T02:24:15;97648.88;;;18.68;37.14
50057;BME280;36875;49.468;11.200;2023-03-19T02:26:43;97645.06;;;18.69;37.05
50057;BME280;36875;49.468;11.200;2023-03-19T02:29:10;97644.56;;;18.67;36.95
50057;BME280;36875;49.468;11.200;2023-03-19T02:31:36;97639.13;;;18.67;37.15
50057;BME280;36875;49.468;11.200;2023-03-19T02:34:03;97642.16;;;18.66;36.96
50057;BME280;36875;49.468;11.200;2023-03-19T02:36:32;97639.72;;;18.64;37.31
50057;BME280;36875;49.468;11.200;2023-03-19T02:39:03;97642.94;;;18.66;37.43
50057;BME280;36875;49.468;11.200;2023-03-19T02:41:31;97626.41;;;18.63;37.00
50057;BME280;36875;49.468;11.200;2023-03-19T02:43:59;97637.50;;;18.66;37.20
50057;BME280;36875;49.468;11.200;2023-03-19T02:46:26;97629.44;;;18.61;37.07
50057;BME280;36875;49.468;11.200;2023-03-19T02:48:51;97641.31;;;18.65;37.41
50057;BME280;36875;49.468;11.200;2023-03-19T02:51:17;97639.72;;;18.64;37.11
50057;BME280;36875;49.468;11.200;2023-03-19T02:53:44;97630.41;;;18.65;37.17
50057;BME280;36875;49.468;11.200;2023-03-19T02:56:09;97629.63;;;18.65;36.90
50057;BME280;36875;49.468;11.200;2023-03-19T02:58:35;97635.88;;;18.65;37.12
50057;BME280;36875;49.468;11.200;2023-03-19T03:01:02;97632.66;;;18.63;37.00
50057;BME280;36875;49.468;11.200;2023-03-19T03:03:28;97640.53;;;18.65;37.27
50057;BME280;36875;49.468;11.200;2023-03-19T03:05:53;97647.09;;;18.64;37.10
50057;BME280;36875;49.468;11.200;2023-03-19T03:08:19;97652.84;;;18.62;37.06
50057;BME280;36875;49.468;11.200;2023-03-19T03:10:44;97652.84;;;18.62;37.28
50057;BME280;36875;49.468;11.200;2023-03-19T03:13:10;97657.50;;;18.62;37.36
50057;BME280;36875;49.468;11.200;2023-03-19T03:15:35;97658.91;;;18.59;36.99
50057;BME280;36875;49.468;11.200;2023-03-19T03:18:03;97662.13;;;18.61;36.83
50057;BME280;36875;49.468;11.200;2023-03-19T03:20:28;97664.88;;;18.61;37.01
50057;BME280;36875;49.468;11.200;2023-03-19T03:22:54;97675.75;;;18.61;37.17
50057;BME280;36875;49.468;11.200;2023-03-19T03:25:20;97675.75;;;18.61;37.02
50057;BME280;36875;49.468;11.200;2023-03-19T03:27:46;97666.78;;;18.61;36.83
50057;BME280;36875;49.468;11.200;2023-03-19T03:30:13;97668.72;;;18.60;36.94
50057;BME280;36875;49.468;11.200;2023-03-19T03:32:40;97671.44;;;18.60;36.88
50057;BME280;36875;49.468;11.200;2023-03-19T03:35:08;97674.16;;;18.60;36.72
50057;BME280;36875;49.468;11.200;2023-03-19T03:37:34;97672.25;;;18.61;37.05
50057;BME280;36875;49.468;11.200;2023-03-19T03:40:01;97672.03;;;18.57;37.07
50057;BME280;36875;49.468;11.200;2023-03-19T03:42:30;97671.06;;;18.53;37.11
50057;BME280;36875;49.468;11.200;2023-03-19T03:44:57;97678.00;;;18.59;36.81
50057;BME280;36875;49.468;11.200;2023-03-19T03:47:22;97681.50;;;18.60;37.19
50057;BME280;36875;49.468;11.200;2023-03-19T03:49:48;97679.91;;;18.59;36.79
50057;BME280;36875;49.468;11.200;2023-03-19T03:52:14;97669.81;;;18.59;37.15
50057;BME280;36875;49.468;11.200;2023-03-19T03:54:40;97679.91;;;18.59;37.12
50057;BME280;36875;49.468;11.200;2023-03-19T03:57:06;97681.84;;;18.58;36.88
50057;BME280;36875;49.468;11.200;2023-03-19T03:59:32;97683.75;;;18.58;36.67
50057;BME280;36875;49.468;11.200;2023-03-19T04:01:57;97687.31;;;18.58;36.81
50057;BME280;36875;49.468;11.200;2023-03-19T04:04:23;97684.88;;;18.57;36.72
50057;BME280;36875;49.468;11.200;2023-03-19T04:06:48;97688.41;;;18.57;37.01
50057;BME280;36875;49.468;11.200;2023-03-19T04:09:15;97691.91;;;18.58;36.76
50057;BME280;36875;49.468;11.200;2023-03-19T04:11:41;97692.22;;;18.56;37.13
50057;BME280;36875;49.468;11.200;2023-03-19T04:14:07;97685.19;;;18.55;36.88
50057;BME280;36875;49.468;11.200;2023-03-19T04:16:33;97691.44;;;18.56;37.07
50057;BME280;36875;49.468;11.200;2023-03-19T04:18:58;97693.06;;;18.57;36.98
50057;BME280;36875;49.468;11.200;2023-03-19T04:21:24;97696.88;;;18.56;36.88
50057;BME280;36875;49.468;11.200;2023-03-19T04:23:50;97697.69;;;18.56;36.75
50057;BME280;36875;49.468;11.200;2023-03-19T04:26:17;97700.72;;;18.55;36.85
50057;BME280;36875;49.468;11.200;2023-03-19T04:28:42;97694.94;;;18.56;37.08
50057;BME280;36875;49.468;11.200;2023-03-19T04:31:08;97701.53;;;18.55;36.76
50057;BME280;36875;49.468;11.200;2023-03-19T04:33:35;97703.47;;;18.55;37.02
50057;BME280;36875;49.468;11.200;2023-03-19T04:36:01;97699.91;;;18.54;36.76
50057;BME280;36875;49.468;11.200;2023-03-19T04:38:27;97694.59;;;18.49;36.66
50057;BME280;36875;49.468;11.200;2023-03-19T04:40:53;97706.47;;;18.53;37.02
50057;BME280;36875;49.468;11.200;2023-03-19T04:43:20;97702.13;;;18.52;36.84
50057;BME280;36875;49.468;11.200;2023-03-19T04:45:46;97709.22;;;18.53;36.92
50057;BME280;36875;49.468;11.200;2023-03-19T04:48:12;97700.53;;;18.51;37.02
50057;BME280;36875;49.468;11.200;2023-03-19T04:50:37;97706.47;;;18.53;36.65
50057;BME280;36875;49.468;11.200;2023-03-19T04:53:03;97710.31;;;18.52;37.03
50057;BME280;36875;49.468;11.200;2023-03-19T04:55:29;97708.38;;;18.53;36.57
50057;BME280;36875;49.468;11.200;2023-03-19T04:57:54;97706.78;;;18.52;36.72
50057;BME280;36875;49.468;11.200;2023-03-19T05:00:22;97716.88;;;18.51;36.79
50057;BME280;36875;49.468;11.200;2023-03-19T05:02:47;97711.44;;;18.51;36.87
50057;BME280;36875;49.468;11.200;2023-03-19T05:05:13;97721.84;;;18.49;36.98
50057;BME280;36875;49.468;11.200;2023-03-19T05:07:39;97729.19;;;18.48;36.87
50057;BME280;36875;49.468;11.200;2023-03-19T05:10:06;97728.69;;;18.46;36.62
50057;BME280;36875;49.468;11.200;2023-03-19T05:12:32;97734.13;;;18.46;36.96
50057;BME280;36875;49.468;11.200;2023-03-19T05:14:57;97723.34;;;18.41;36.55
50057;BME280;36875;49.468;11.200;2023-03-19T05:17:24;97729.00;;;18.45;37.00
50057;BME280;36875;49.468;11.200;2023-03-19T05:19:50;97730.63;;;18.46;36.59
50057;BME280;36875;49.468;11.200;2023-03-19T05:22:17;97727.88;;;18.46;36.58
50057;BME280;36875;49.468;11.200;2023-03-19T05:24:42;97725.97;;;18.46;36.77
50057;BME280;36875;49.468;11.200;2023-03-19T05:27:08;97725.97;;;18.46;36.49
50057;BME280;36875;49.468;11.200;2023-03-19T05:29:33;97721.94;;;18.44;36.58
50057;BME280;36875;49.468;11.200;2023-03-19T05:31:59;97730.91;;;18.44;36.79
50057;BME280;36875;49.468;11.200;2023-03-19T05:34:28;97727.69;;;18.42;36.94
50057;BME280;36875;49.468;11.200;2023-03-19T05:36:54;97732.00;;;18.43;36.42
50057;BME280;36875;49.468;11.200;2023-03-19T05:39:20;97748.06;;;18.45;36.66
50057;BME280;36875;49.468;11.200;2023-03-19T05:41:45;97749.19;;;18.44;36.54
50057;BME280;36875;49.468;11.200;2023-03-19T05:44:11;97749.19;;;18.44;36.90
50057;BME280;36875;49.468;11.200;2023-03-19T05:46:36;97747.06;;;18.41;36.51
50057;BME280;36875;49.468;11.200;2023-03-19T05:49:03;97751.41;;;18.42;36.83
50057;BME280;36875;49.468;11.200;2023-03-19T05:51:30;97757.16;;;18.40;36.74
50057;BME280;36875;49.468;11.200;2023-03-19T05:53:56;97752.81;;;18.39;36.66
50057;BME280;36875;49.468;11.200;2023-03-19T05:56:21;97773.22;;;18.42;36.58
50057;BME280;36875;49.468;11.200;2023-03-19T05:58:47;97759.09;;;18.40;36.90
50057;BME280;36875;49.468;11.200;2023-03-19T06:01:12;97774.31;;;18.41;36.74
50057;BME280;36875;49.468;11.200;2023-03-19T06:03:38;97770.78;;;18.40;36.96
50057;BME280;36875;49.468;11.200;2023-03-19T06:06:04;97784.72;;;18.39;36.62
50057;BME280;36875;49.468;11.200;2023-03-19T06:08:31;97780.69;;;18.36;36.75
50057;BME280;36875;49.468;11.200;2023-03-19T06:10:56;97793.69;;;18.39;36.81
50057;BME280;36875;49.468;11.200;2023-03-19T06:13:22;97795.59;;;18.39;36.55
50057;BME280;36875;49.468;11.200;2023-03-19T06:15:50;97794.81;;;18.38;36.80
50057;BME280;36875;49.468;11.200;2023-03-19T06:18:16;97799.44;;;18.38;36.67
50057;BME280;36875;49.468;11.200;2023-03-19T06:20:42;97794.41;;;18.31;36.64
50057;BME280;36875;49.468;11.200;2023-03-19T06:23:08;97802.16;;;18.38;36.67
50057;BME280;36875;49.468;11.200;2023-03-19T06:25:35;97807.94;;;18.36;36.98
50057;BME280;36875;49.468;11.200;2023-03-19T06:28:01;97806.81;;;18.37;36.34
50057;BME280;36875;49.468;11.200;2023-03-19T06:30:27;97812.53;;;18.36;36.61
50057;BME280;36875;49.468;11.200;2023-03-19T06:32:53;97802.47;;;18.36;36.81
50057;BME280;36875;49.468;11.200;2023-03-19T06:35:18;97807.94;;;18.36;36.37
50057;BME280;36875;49.468;11.200;2023-03-19T06:37:44;97817.19;;;18.35;36.78
50057;BME280;36875;49.468;11.200;2023-03-19T06:40:10;97815.91;;;18.33;36.55
50057;BME280;36875;49.468;11.200;2023-03-19T06:42:38;97817.78;;;18.32;36.62
50057;BME280;36875;49.468;11.200;2023-03-19T06:45:04;97822.66;;;18.35;36.82
50057;BME280;36875;49.468;11.200;2023-03-19T06:47:30;97828.09;;;18.35;36.74
50057;BME280;36875;49.468;11.200;2023-03-19T06:49:56;97835.97;;;18.37;36.31
50057;BME280;36875;49.468;11.200;2023-03-19T06:52:21;97831.63;;;18.36;36.58
50057;BME280;36875;49.468;11.200;2023-03-19T06:54:47;97831.31;;;18.37;36.26
50057;BME280;36875;49.468;11.200;2023-03-19T06:57:12;97837.06;;;18.36;36.66
50057;BME280;36875;49.468;11.200;2023-03-19T06:59:39;97837.56;;;18.38;36.53
50057;BME280;36875;49.468;11.200;2023-03-19T07:02:05;97849.28;;;18.38;36.19
50057;BME280;36875;49.468;11.200;2023-03-19T07:04:31;97845.75;;;18.38;36.42
50057;BME280;36875;49.468;11.200;2023-03-19T07:06:56;97851.53;;;18.36;36.61
50057;BME280;36875;49.468;11.200;2023-03-19T07:09:22;97857.75;;;18.37;36.37
50057;BME280;36875;49.468;11.200;2023-03-19T07:11:47;97859.69;;;18.36;36.44
50057;BME280;36875;49.468;11.200;2023-03-19T07:14:13;97863.22;;;18.37;36.29
50057;BME280;36875;49.468;11.200;2023-03-19T07:16:40;97874.41;;;18.35;36.57
50057;BME280;36875;49.468;11.200;2023-03-19T07:19:05;97872.47;;;18.36;36.62
50057;BME280;36875;49.468;11.200;2023-03-19T07:21:31;97891.06;;;18.34;36.52
50057;BME280;36875;49.468;11.200;2023-03-19T07:23:56;97886.41;;;18.34;36.58
50057;BME280;36875;49.468;11.200;2023-03-19T07:26:22;97891.34;;;18.32;36.51
50057;BME280;36875;49.468;11.200;2023-03-19T07:28:47;97894.06;;;18.32;36.64
50057;BME280;36875;49.468;11.200;2023-03-19T07:31:13;97898.44;;;18.33;36.50
50057;BME280;36875;49.468;11.200;2023-03-19T07:33:40;97894.56;;;18.34;36.61
50057;BME280;36875;49.468;11.200;2023-03-19T07:36:06;97909.03;;;18.35;37.10
50057;BME280;36875;49.468;11.200;2023-03-19T07:38:32;97903.88;;;18.33;36.54
50057;BME280;36875;49.468;11.200;2023-03-19T07:40:57;97910.13;;;18.34;36.58
50057;BME280;36875;49.468;11.200;2023-03-19T07:43:23;97912.84;;;18.34;36.68
50057;BME280;36875;49.468;11.200;2023-03-19T07:45:48;97912.03;;;18.33;37.10
50057;BME280;36875;49.468;11.200;2023-03-19T07:48:14;97914.25;;;18.31;36.81
50057;BME280;36875;49.468;11.200;2023-03-19T07:50:41;97909.63;;;18.32;36.87
50057;BME280;36875;49.468;11.200;2023-03-19T07:53:06;97915.88;;;18.32;36.94
50057;BME280;36875;49.468;11.200;2023-03-19T07:55:32;97909.69;;;18.26;36.82
50057;BME280;36875;49.468;11.200;2023-03-19T07:57:57;97907.59;;;18.23;37.43
50057;BME280;36875;49.468;11.200;2023-03-19T08:00:23;97913.94;;;18.19;37.20
50057;BME280;36875;49.468;11.200;2023-03-19T08:02:48;97919.66;;;18.17;37.33
50057;BME280;36875;49.468;11.200;2023-03-19T08:05:14;97914.22;;;18.17;37.79
50057;BME280;36875;49.468;11.200;2023-03-19T08:07:41;97925.13;;;18.17;37.82
50057;BME280;36875;49.468;11.200;2023-03-19T08:10:09;97925.13;;;18.17;38.08
50057;BME280;36875;49.468;11.200;2023-03-19T08:12:34;97919.66;;;18.17;38.54
50057;BME280;36875;49.468;11.200;2023-03-19T08:15:07;97926.13;;;18.21;39.35
50057;BME280;36875;49.468;11.200;2023-03-19T08:17:33;97932.00;;;18.28;40.43
50057;BME280;36875;49.468;11.200;2023-03-19T08:20:03;97934.94;;;18.32;41.13
50057;BME280;36875;49.468;11.200;2023-03-19T08:22:29;97930.81;;;18.35;41.66
50057;BME280;36875;49.468;11.200;2023-03-19T08:24:55;97931.03;;;18.38;42.58
50057;BME280;36875;49.468;11.200;2023-03-19T08:27:21;97933.06;;;18.46;43.02
50057;BME280;36875;49.468;11.200;2023-03-19T08:29:47;97937.81;;;18.55;43.72
50057;BME280;36875;49.468;11.200;2023-03-19T08:32:12;97947.22;;;18.62;44.04
50057;BME280;36875;49.468;11.200;2023-03-19T08:34:38;97945.00;;;18.64;44.31
50057;BME280;36875;49.468;11.200;2023-03-19T08:37:03;97946.72;;;18.74;44.49
50057;BME280;36875;49.468;11.200;2023-03-19T08:39:29;97945.00;;;18.78;44.87
50057;BME280;36875;49.468;11.200;2023-03-19T08:41:55;97940.38;;;18.93;44.79
50057;BME280;36875;49.468;11.200;2023-03-19T08:44:21;97956.53;;;18.89;45.57
50057;BME280;36875;49.468;11.200;2023-03-19T08:46:47;97959.91;;;18.86;45.55
50057;BME280;36875;49.468;11.200;2023-03-19T08:49:12;97953.94;;;18.84;45.43
50057;BME280;36875;49.468;11.200;2023-03-19T08:51:38;97961.50;;;18.87;46.04
50057;BME280;36875;49.468;11.200;2023-03-19T08:54:04;97966.94;;;18.87;46.36
50057;BME280;36875;49.468;11.200;2023-03-19T08:56:30;97967.94;;;18.91;45.98
50057;BME280;36875;49.468;11.200;2023-03-19T08:58:57;97969.06;;;19.04;46.48
50057;BME280;36875;49.468;11.200;2023-03-19T09:01:23;97968.88;;;19.00;46.44
50057;BME280;36875;49.468;11.200;2023-03-19T09:03:48;97971.69;;;19.09;46.52
50057;BME280;36875;49.468;11.200;2023-03-19T09:06:14;97979.19;;;19.03;46.93
50057;BME280;36875;49.468;11.200;2023-03-19T09:08:40;97972.72;;;18.99;46.83
50057;BME280;36875;49.468;11.200;2023-03-19T09:11:06;97979.41;;;18.93;46.51
50057;BME280;36875;49.468;11.200;2023-03-19T09:13:32;97974.53;;;18.90;47.10
50057;BME280;36875;49.468;11.200;2023-03-19T09:15:59;97974.81;;;18.88;47.13
50057;BME280;36875;49.468;11.200;2023-03-19T09:18:25;97975.03;;;18.92;46.86
50057;BME280;36875;49.468;11.200;2023-03-19T09:20:51;97981.38;;;18.87;46.68
50057;BME280;36875;49.468;11.200;2023-03-19T09:23:18;97984.94;;;18.88;47.35
50057;BME280;36875;49.468;11.200;2023-03-19T09:25:43;97984.22;;;18.96;47.05
50057;BME280;36875;49.468;11.200;2023-03-19T09:28:09;97983.81;;;19.31;47.34
50057;BME280;36875;49.468;11.200;2023-03-19T09:30:35;97994.59;;;19.63;46.74
50057;BME280;36875;49.468;11.200;2023-03-19T09:33:02;97983.16;;;19.75;46.81
50057;BME280;36875;49.468;11.200;2023-03-19T09:35:28;97990.50;;;19.89;46.48
50057;BME280;36875;49.468;11.200;2023-03-19T09:37:55;97979.91;;;19.87;46.93
50057;BME280;36875;49.468;11.200;2023-03-19T09:40:23;97986.72;;;19.98;46.80
50057;BME280;36875;49.468;11.200;2023-03-19T09:43:00;97989.16;;;20.00;46.77
50057;BME280;36875;49.468;11.200;2023-03-19T09:45:33;97991.56;;;20.01;47.08
50057;BME280;36875;49.468;11.200;2023-03-19T09:48:06;97983.88;;;20.03;47.24
50057;BME280;36875;49.468;11.200;2023-03-19T09:50:36;97986.94;;;20.02;47.05
50057;BME280;36875;49.468;11.200;2023-03-19T09:53:06;97988.53;;;20.03;47.12
50057;BME280;36875;49.468;11.200;2023-03-19T09:55:40;97990.47;;;20.02;47.54
50057;BME280;36875;49.468;11.200;2023-03-19T09:58:13;97992.88;;;20.04;47.57
50057;BME280;36875;49.468;11.200;2023-03-19T10:00:40;97985.50;;;20.05;47.87
50057;BME280;36875;49.468;11.200;2023-03-19T10:03:22;97985.31;;;20.01;47.69
50057;BME280;36875;49.468;11.200;2023-03-19T10:05:57;97989.03;;;20.05;47.67
50057;BME280;36875;49.468;11.200;2023-03-19T10:08:40;97984.91;;;19.94;47.82
50057;BME280;36875;49.468;11.200;2023-03-19T10:11:25;97990.19;;;19.90;47.64
50057;BME280;36875;49.468;11.200;2023-03-19T10:14:01;97988.97;;;19.96;48.04
50057;BME280;36875;49.468;11.200;2023-03-19T10:16:31;97994.94;;;19.98;48.18
50057;BME280;36875;49.468;11.200;2023-03-19T10:19:00;97991.56;;;20.01;47.98
50057;BME280;36875;49.468;11.200;2023-03-19T10:21:30;97991.25;;;20.03;48.45
50057;BME280;36875;49.468;11.200;2023-03-19T10:23:59;97996.22;;;20.01;48.47
50057;BME280;36875;49.468;11.200;2023-03-19T10:26:29;97996.53;;;19.99;48.21
50057;BME280;36875;49.468;11.200;2023-03-19T10:29:03;97997.34;;;20.00;48.71
50057;BME280;36875;49.468;11.200;2023-03-19T10:31:39;97996.53;;;19.99;48.49
50057;BME280;36875;49.468;11.200;2023-03-19T10:34:17;97996.88;;;19.98;48.82
50057;BME280;36875;49.468;11.200;2023-03-19T10:36:46;97997.16;;;19.96;49.11
50057;BME280;36875;49.468;11.200;2023-03-19T10:39:14;97997.16;;;19.96;48.95
50057;BME280;36875;49.468;11.200;2023-03-19T10:41:48;97993.59;;;19.96;48.85
50057;BME280;36875;49.468;11.200;2023-03-19T10:44:24;97993.59;;;19.96;48.88
50057;BME280;36875;49.468;11.200;2023-03-19T10:46:52;97995.03;;;19.93;49.14
50057;BME280;36875;49.468;11.200;2023-03-19T10:49:19;97991.13;;;19.86;48.88
50057;BME280;36875;49.468;11.200;2023-03-19T10:51:45;97994.34;;;19.88;48.93
50057;BME280;36875;49.468;11.200;2023-03-19T10:54:19;97995.66;;;19.90;48.94
50057;BME280;36875;49.468;11.200;2023-03-19T10:56:46;97988.28;;;19.91;49.37
50057;BME280;36875;49.468;11.200;2023-03-19T10:59:20;97979.06;;;19.87;49.25
50057;BME280;36875;49.468;11.200;2023-03-19T11:01:46;97983.44;;;19.88;48.95
50057;BME280;36875;49.468;11.200;2023-03-19T11:04:14;97987.16;;;19.92;49.32
50057;BME280;36875;49.468;11.200;2023-03-19T11:06:47;97980.09;;;19.91;49.14
50057;BME280;36875;49.468;11.200;2023-03-19T11:09:18;97978.97;;;19.92;49.44
50057;BME280;36875;49.468;11.200;2023-03-19T11:11:46;97979.91;;;19.87;49.22
50057;BME280;36875;49.468;11.200;2023-03-19T11:14:15;97976.84;;;19.89;49.43
50057;BME280;36875;49.468;11.200;2023-03-19T11:16:50;97968.97;;;19.87;49.31
50057;BME280;36875;49.468;11.200;2023-03-19T11:19:20;97971.38;;;19.89;49.70
50057;BME280;36875;49.468;11.200;2023-03-19T11:21:59;97966.75;;;19.89;49.46
50057;BME280;36875;49.468;11.200;2023-03-19T11:24:25;97972.00;;;19.86;49.63
50057;BME280;36875;49.468;11.200;2023-03-19T11:26:53;97973.59;;;19.87;49.72
50057;BME280;36875;49.468;11.200;2023-03-19T11:29:19;97962.69;;;19.87;49.36
50057;BME280;36875;49.468;11.200;2023-03-19T11:31:50;97958.06;;;19.87;49.85
50057;BME280;36875;49.468;11.200;2023-03-19T11:34:25;97949.66;;;19.83;49.32
50057;BME280;36875;49.468;11.200;2023-03-19T11:37:04;97953.19;;;19.84;49.45
50057;BME280;36875;49.468;11.200;2023-03-19T11:39:36;97947.13;;;19.87;49.72
50057;BME280;36875;49.468;11.200;2023-03-19T11:42:24;97935.38;;;19.87;49.79
50057;BME280;36875;49.468;11.200;2023-03-19T11:45:01;97934.75;;;19.90;49.78
50057;BME280;36875;49.468;11.200;2023-03-19T11:47:32;97934.75;;;19.90;49.45
50057;BME280;36875;49.468;11.200;2023-03-19T11:50:05;97924.94;;;19.89;49.27
50057;BME280;36875;49.468;11.200;2023-03-19T11:52:55;97912.91;;;19.90;49.25
50057;BME280;36875;49.468;11.200;2023-03-19T11:55:27;97921.78;;;19.95;49.25
50057;BME280;36875;49.468;11.200;2023-03-19T11:58:07;97909.47;;;19.98;49.15
50057;BME280;36875;49.468;11.200;2023-03-19T12:00:42;97902.56;;;20.00;49.24
50057;BME280;36875;49.468;11.200;2023-03-19T12:06:16;97889.09;;;20.04;49.13
50057;BME280;36875;49.468;11.200;2023-03-19T12:08:49;97890.38;;;20.07;49.47
50057;BME280;36875;49.468;11.200;2023-03-19T12:11:23;97884.59;;;20.08;49.11
50057;BME280;36875;49.468;11.200;2023-03-19T12:13:52;97882.84;;;20.12;49.08
50057;BME280;36875;49.468;11.200;2023-03-19T12:16:27;97886.91;;;20.15;49.24
50057;BME280;36875;49.468;11.200;2023-03-19T12:19:24;97882.91;;;20.21;48.96
50057;BME280;36875;49.468;11.200;2023-03-19T12:21:59;97880.84;;;20.27;48.94
50057;BME280;36875;49.468;11.200;2023-03-19T12:24:39;97875.69;;;20.25;48.75
50057;BME280;36875;49.468;11.200;2023-03-19T12:27:21;97880.84;;;20.27;48.59
50057;BME280;36875;49.468;11.200;2023-03-19T12:29:56;97879.25;;;20.26;48.65
50057;BME280;36875;49.468;11.200;2023-03-19T12:32:35;97874.56;;;20.26;48.80
50057;BME280;36875;49.468;11.200;2023-03-19T12:35:08;97875.38;;;20.27;48.93
50057;BME280;36875;49.468;11.200;2023-03-19T12:37:40;97867.19;;;20.27;48.90
50057;BME280;36875;49.468;11.200;2023-03-19T12:40:16;97863.84;;;20.30;48.90
50057;BME280;36875;49.468;11.200;2023-03-19T12:42:49;97861.09;;;20.30;48.84
50057;BME280;36875;49.468;11.200;2023-03-19T12:45:23;97858.69;;;20.28;49.10
50057;BME280;36875;49.468;11.200;2023-03-19T12:47:53;97856.38;;;20.21;48.84
50057;BME280;36875;49.468;11.200;2023-03-19T12:50:20;97857.03;;;20.18;49.10
50057;BME280;36875;49.468;11.200;2023-03-19T12:52:48;97859.56;;;20.15;48.97
50057;BME280;36875;49.468;11.200;2023-03-19T12:55:19;97851.69;;;20.13;49.31
50057;BME280;36875;49.468;11.200;2023-03-19T12:57:48;97854.72;;;20.12;49.25